Atlantic City, New Jersey
Current Conditions -  °F | °C
As of 11:54 AM on Thursday 30 Oct 2014 (Local Time) from KACY Reporting Station
Broken Clouds Broken Clouds  
Wind Chill: 56°   Ceiling: 7000
Heat Index: 56°   Visibility: 10mi
Dew Point: 43°   Wind: 8mph
Humidity: 62%   Direction: 340°NNW
Pressure: 30.01"   Gusts: NA
Location:  39.36°N, 74.43°W
Report Text: KACY 301554Z 34007KT 10SM BKN070 13/06 A3001 RMK AO2 SLP163 T01330061
Loading
Personal Weather Stations






























Interactive Weather Map
Tropical Storm Tracking
New forecast layout! Learn more

10-Day Weather Forecast

Advertisements
Track Severe Weather on mobile